Time;durP1;ratioP1;P1;durP2;ratioP2;P2;SDS_P1;SDS_P2;PMS_P1;PMS_P2;Temp;Humidity;BMP_temperature;BMP_pressure;BME280_temperature;BME280_humidity;BME280_pressure;Samples;Min_cycle;Max_cycle;Signal;HPM_P1;HPM_P2
2023/04/30 00:00:50;;;;;;;7.50;6.30;;;9.80;99.90;;;;;;5135872;27;20642;-75
2023/04/30 00:03:18;;;;;;;9.90;7.33;;;9.80;99.90;;;;;;5135464;27;20284;-77
2023/04/30 00:05:50;;;;;;;8.13;6.53;;;9.80;99.90;;;;;;5135719;27;20613;-78
2023/04/30 00:08:20;;;;;;;8.17;6.93;;;9.70;99.90;;;;;;5135425;27;20206;-79
2023/04/30 00:10:48;;;;;;;9.33;7.10;;;9.70;99.90;;;;;;5135668;27;20301;-79
2023/04/30 00:13:16;;;;;;;8.47;6.70;;;9.70;99.90;;;;;;5135113;27;20316;-79
2023/04/30 00:15:44;;;;;;;11.23;7.57;;;9.70;99.90;;;;;;5135577;27;20634;-79
2023/04/30 00:18:12;;;;;;;9.10;7.30;;;9.60;99.90;;;;;;5134892;27;20205;-78
2023/04/30 00:20:40;;;;;;;7.60;6.73;;;9.60;99.90;;;;;;5135190;27;20259;-78
2023/04/30 00:23:09;;;;;;;8.10;6.90;;;9.60;99.90;;;;;;5134683;27;20678;-77
2023/04/30 00:25:38;;;;;;;9.33;6.97;;;9.60;99.90;;;;;;5135055;27;20309;-79
2023/04/30 00:28:06;;;;;;;8.47;7.03;;;9.60;99.90;;;;;;5134733;27;20206;-78
2023/04/30 00:30:34;;;;;;;8.53;6.97;;;9.50;99.90;;;;;;5134614;27;20237;-78
2023/04/30 00:33:02;;;;;;;8.30;7.17;;;9.50;99.90;;;;;;5154415;27;20225;-79
2023/04/30 00:35:30;;;;;;;8.63;7.07;;;9.50;99.90;;;;;;5155077;27;20219;-77
2023/04/30 00:37:58;;;;;;;10.17;7.10;;;9.50;99.90;;;;;;5144651;27;20678;-78
2023/04/30 00:40:26;;;;;;;9.17;7.20;;;9.40;99.90;;;;;;5134878;27;20555;-78
2023/04/30 00:42:56;;;;;;;8.23;6.63;;;9.50;99.90;;;;;;5134564;27;20201;-77
2023/04/30 00:45:24;;;;;;;11.27;7.70;;;9.50;99.90;;;;;;5134538;27;20666;-77
2023/04/30 00:47:52;;;;;;;8.00;6.50;;;9.50;99.90;;;;;;5134215;27;20233;-76
2023/04/30 00:50:20;;;;;;;7.97;6.97;;;9.40;99.90;;;;;;5135083;27;20210;-77
2023/04/30 00:52:48;;;;;;;9.13;7.00;;;9.40;99.90;;;;;;5137513;27;20226;-75
2023/04/30 00:55:18;;;;;;;8.50;7.07;;;9.30;99.90;;;;;;5137995;27;20206;-78
2023/04/30 00:57:46;;;;;;;8.17;6.83;;;9.30;99.90;;;;;;5137451;27;20301;-78
2023/04/30 01:00:16;;;;;;;9.80;7.20;;;9.20;99.90;;;;;;5136727;27;20209;-76
2023/04/30 01:02:44;;;;;;;8.87;7.23;;;9.20;99.90;;;;;;5135578;27;20206;-79
2023/04/30 01:05:12;;;;;;;8.47;6.90;;;9.20;99.90;;;;;;5134417;27;20286;-76
2023/04/30 01:07:43;;;;;;;8.40;7.00;;;9.20;99.90;;;;;;5134434;27;20297;-78
2023/04/30 01:10:13;;;;;;;8.33;7.37;;;9.10;99.90;;;;;;5134325;27;20209;-76
2023/04/30 01:12:48;;;;;;;8.23;7.33;;;9.00;99.90;;;;;;5133404;27;20694;-78
2023/04/30 01:15:27;;;;;;;8.07;7.10;;;9.00;99.90;;;;;;5134093;27;20297;-77
2023/04/30 01:17:59;;;;;;;7.43;6.63;;;9.00;99.90;;;;;;5134097;27;20205;-77
2023/04/30 01:20:29;;;;;;;10.27;6.83;;;9.00;99.90;;;;;;5133872;27;20614;-77
2023/04/30 01:23:14;;;;;;;8.73;7.43;;;9.00;99.90;;;;;;5133780;27;20208;-77
2023/04/30 01:25:54;;;;;;;8.43;7.23;;;9.00;99.90;;;;;;5133845;27;20201;-76
2023/04/30 01:28:25;;;;;;;10.77;7.53;;;8.90;99.90;;;;;;5133516;27;20611;-74
2023/04/30 01:30:53;;;;;;;8.50;6.93;;;9.00;99.90;;;;;;5147167;27;20204;-75
2023/04/30 01:33:21;;;;;;;8.27;6.83;;;9.00;99.90;;;;;;5145163;27;20256;-77
2023/04/30 01:36:26;;;;;;;7.97;6.90;;;9.00;99.90;;;;;;5133459;27;20219;-76
2023/04/30 01:39:07;;;;;;;8.60;7.27;;;9.00;99.90;;;;;;5132977;27;20206;-79
2023/04/30 01:41:40;;;;;;;9.13;7.70;;;9.00;99.90;;;;;;5130662;27;20201;-76
2023/04/30 01:44:31;;;;;;;9.13;6.83;;;9.00;99.90;;;;;;5131051;27;20688;-76
2023/04/30 01:47:06;;;;;;;11.27;8.07;;;9.00;99.90;;;;;;5131752;27;20239;-75
2023/04/30 01:49:47;;;;;;;9.43;8.43;;;9.00;99.90;;;;;;5131937;27;20200;-77
2023/04/30 01:52:20;;;;;;;9.77;7.90;;;9.00;99.90;;;;;;5132177;27;20786;-75
2023/04/30 01:54:53;;;;;;;10.67;8.50;;;9.10;99.90;;;;;;5132724;27;20209;-77
2023/04/30 01:57:28;;;;;;;8.60;7.70;;;9.00;99.90;;;;;;5133225;27;20255;-76
2023/04/30 01:59:58;;;;;;;9.70;7.97;;;9.00;99.90;;;;;;5141772;27;20203;-77
2023/04/30 02:02:26;;;;;;;9.50;7.70;;;9.00;99.90;;;;;;5165018;27;20207;-77
2023/04/30 02:04:54;;;;;;;8.67;7.30;;;9.10;99.90;;;;;;5177161;27;20201;-76
2023/04/30 02:07:37;;;;;;;8.63;7.73;;;9.00;99.90;;;;;;5182592;27;20208;-77
2023/04/30 02:10:06;;;;;;;8.83;7.67;;;9.00;99.90;;;;;;5139246;27;20213;-76
2023/04/30 02:12:34;;;;;;;8.37;7.27;;;9.00;99.90;;;;;;5132641;27;20229;-79
2023/04/30 02:15:05;;;;;;;9.07;8.07;;;9.10;99.90;;;;;;5133149;27;20211;-79
2023/04/30 02:17:33;;;;;;;10.23;7.77;;;9.00;99.90;;;;;;5138269;27;20211;-77
2023/04/30 02:20:01;;;;;;;10.27;8.07;;;9.10;99.90;;;;;;5155966;27;20291;-77
2023/04/30 02:22:29;;;;;;;9.10;7.70;;;9.10;99.90;;;;;;5155395;27;20211;-77
2023/04/30 02:24:57;;;;;;;8.73;7.77;;;9.00;99.90;;;;;;5153640;27;20204;-77
2023/04/30 02:27:26;;;;;;;8.90;8.00;;;9.00;99.90;;;;;;5139839;27;20216;-77
2023/04/30 02:29:55;;;;;;;9.60;7.73;;;9.00;99.90;;;;;;5149817;27;20211;-77
2023/04/30 02:32:25;;;;;;;9.40;8.07;;;9.00;99.90;;;;;;5153137;27;20207;-77
2023/04/30 02:34:53;;;;;;;10.03;8.27;;;9.00;99.90;;;;;;5149814;27;20208;-78
2023/04/30 02:37:21;;;;;;;11.00;7.30;;;9.00;99.90;;;;;;5132922;27;20633;-75
2023/04/30 02:39:49;;;;;;;10.30;8.10;;;9.10;99.90;;;;;;5132657;28;20694;-76
2023/04/30 02:42:17;;;;;;;9.13;7.30;;;9.00;99.90;;;;;;5132082;28;20219;-76
2023/04/30 02:44:45;;;;;;;10.97;8.40;;;9.10;99.90;;;;;;5132374;27;20659;-75
2023/04/30 02:47:14;;;;;;;9.27;7.80;;;9.10;99.90;;;;;;5132196;28;20237;-76
2023/04/30 02:49:43;;;;;;;8.83;7.93;;;9.10;99.90;;;;;;5133433;28;20201;-77
2023/04/30 02:52:11;;;;;;;9.20;8.20;;;9.10;99.90;;;;;;5132217;27;20205;-79
2023/04/30 02:54:39;;;;;;;9.57;7.90;;;9.10;99.90;;;;;;5133018;28;20264;-78
2023/04/30 02:57:08;;;;;;;9.87;8.23;;;9.10;99.90;;;;;;5132815;28;20205;-78
2023/04/30 02:59:36;;;;;;;9.53;8.03;;;9.00;99.90;;;;;;5132724;28;20213;-77
2023/04/30 03:02:04;;;;;;;8.90;8.00;;;9.10;99.90;;;;;;5132577;27;20202;-78
2023/04/30 03:04:32;;;;;;;8.80;7.90;;;9.10;99.90;;;;;;5132450;28;20205;-78
2023/04/30 03:07:02;;;;;;;9.20;7.87;;;9.00;99.90;;;;;;5132728;28;20209;-77
2023/04/30 03:09:31;;;;;;;9.40;8.40;;;9.00;99.90;;;;;;5134778;27;20650;-79
2023/04/30 03:11:59;;;;;;;9.57;8.03;;;9.00;99.90;;;;;;5136725;27;20324;-79
2023/04/30 03:14:27;;;;;;;10.70;8.60;;;9.00;99.90;;;;;;5136893;27;20221;-77
2023/04/30 03:16:55;;;;;;;9.43;8.43;;;9.00;99.90;;;;;;5139885;27;20201;-77
2023/04/30 03:19:24;;;;;;;11.60;8.30;;;9.00;99.90;;;;;;5157034;27;20665;-76
2023/04/30 03:21:52;;;;;;;11.27;8.27;;;9.00;99.90;;;;;;5156974;27;20283;-76
2023/04/30 03:24:21;;;;;;;10.20;8.27;;;9.00;99.90;;;;;;5156823;27;20654;-76
2023/04/30 03:26:49;;;;;;;10.90;8.63;;;9.00;99.90;;;;;;5147883;27;20229;-76
2023/04/30 03:29:17;;;;;;;10.10;8.30;;;9.00;99.90;;;;;;5156863;27;20530;-75
2023/04/30 03:31:45;;;;;;;10.00;8.17;;;9.00;99.90;;;;;;5156534;27;20221;-76
2023/04/30 03:34:14;;;;;;;10.10;8.40;;;9.00;99.90;;;;;;5154010;27;20242;-74
2023/04/30 03:36:42;;;;;;;9.33;8.33;;;8.90;99.90;;;;;;5136194;27;20236;-77
2023/04/30 03:39:10;;;;;;;10.70;8.37;;;8.90;99.90;;;;;;5136365;27;20275;-75
2023/04/30 03:41:39;;;;;;;9.97;8.30;;;8.90;99.90;;;;;;5135699;27;20213;-76
2023/04/30 03:44:14;;;;;;;9.63;8.63;;;8.90;99.90;;;;;;5135648;27;20293;-78
2023/04/30 03:46:43;;;;;;;11.23;9.00;;;8.90;99.90;;;;;;5136075;27;20215;-76
2023/04/30 03:49:11;;;;;;;10.97;8.47;;;8.90;99.90;;;;;;5135745;27;20263;-76
2023/04/30 03:51:40;;;;;;;9.70;8.67;;;8.80;99.90;;;;;;5135621;27;20292;-76
2023/04/30 03:54:09;;;;;;;10.37;9.20;;;8.80;99.90;;;;;;5135776;27;20217;-79
2023/04/30 03:56:39;;;;;;;9.80;8.80;;;8.80;99.90;;;;;;5135864;27;20216;-77
2023/04/30 03:59:08;;;;;;;12.70;9.40;;;8.70;99.90;;;;;;5135962;27;20233;-76
2023/04/30 04:01:36;;;;;;;9.77;8.57;;;8.70;99.90;;;;;;5135672;27;20212;-76
2023/04/30 04:04:04;;;;;;;10.23;9.13;;;8.70;99.90;;;;;;5143117;27;20320;-78
2023/04/30 04:06:32;;;;;;;10.97;9.57;;;8.70;99.90;;;;;;5135688;27;20671;-77
2023/04/30 04:09:00;;;;;;;11.17;9.17;;;8.70;99.90;;;;;;5135233;27;20624;-77
2023/04/30 04:11:28;;;;;;;12.47;9.83;;;8.70;99.90;;;;;;5138668;27;20213;-75
2023/04/30 04:13:58;;;;;;;10.47;9.23;;;8.70;99.90;;;;;;5135033;27;20228;-78
2023/04/30 04:16:26;;;;;;;13.43;9.27;;;8.70;99.90;;;;;;5135075;27;20210;-76
2023/04/30 04:18:54;;;;;;;10.67;9.57;;;8.70;99.90;;;;;;5151316;27;20538;-77
2023/04/30 04:21:22;;;;;;;10.80;9.47;;;8.70;99.90;;;;;;5164630;27;20578;-77
2023/04/30 04:23:50;;;;;;;11.00;9.77;;;8.80;99.90;;;;;;5161159;27;20206;-78
2023/04/30 04:26:20;;;;;;;11.93;9.53;;;8.80;99.90;;;;;;5159953;27;20211;-78
2023/04/30 04:28:48;;;;;;;10.80;9.63;;;8.80;99.90;;;;;;5155677;27;20197;-78
2023/04/30 04:31:17;;;;;;;11.87;9.57;;;8.80;99.90;;;;;;5155292;27;20198;-77
2023/04/30 04:33:45;;;;;;;10.93;9.00;;;8.90;99.90;;;;;;5154154;27;20225;-77
2023/04/30 04:36:13;;;;;;;10.20;8.70;;;8.90;99.90;;;;;;5155560;27;20212;-77
2023/04/30 04:38:42;;;;;;;14.07;9.67;;;8.90;99.90;;;;;;5155919;27;20213;-77
2023/04/30 04:41:10;;;;;;;10.17;9.17;;;8.90;99.90;;;;;;5151724;27;20292;-78
2023/04/30 04:43:38;;;;;;;11.43;9.60;;;8.90;99.90;;;;;;5134334;27;20253;-78
2023/04/30 04:46:08;;;;;;;10.23;9.17;;;9.00;99.90;;;;;;5134850;27;20292;-78
2023/04/30 04:48:39;;;;;;;11.43;8.73;;;9.00;99.90;;;;;;5150701;27;20588;-78
2023/04/30 04:51:07;;;;;;;9.87;8.87;;;9.10;99.90;;;;;;5135233;27;20207;-78
2023/04/30 04:53:35;;;;;;;10.50;9.40;;;9.10;99.90;;;;;;5134208;27;20212;-77
2023/04/30 04:56:03;;;;;;;11.13;9.13;;;9.10;99.90;;;;;;5134529;27;20209;-76
2023/04/30 04:58:31;;;;;;;11.17;8.90;;;9.20;99.90;;;;;;5134406;27;20552;-76
2023/04/30 05:01:00;;;;;;;9.73;8.57;;;9.20;99.90;;;;;;5134624;27;20617;-76
2023/04/30 05:03:28;;;;;;;11.33;9.30;;;9.30;99.90;;;;;;5134125;27;20333;-77
2023/04/30 05:05:58;;;;;;;10.80;9.00;;;9.40;99.90;;;;;;5134483;27;20292;-77
2023/04/30 05:08:26;;;;;;;9.07;7.83;;;9.40;99.90;;;;;;5134467;27;20551;-76
2023/04/30 05:10:54;;;;;;;11.40;8.27;;;9.50;99.90;;;;;;5134295;27;20205;-78
2023/04/30 05:13:22;;;;;;;8.40;7.43;;;9.60;99.90;;;;;;5134113;27;20578;-76
2023/04/30 05:15:52;;;;;;;10.10;8.10;;;9.70;99.90;;;;;;5133956;27;20225;-76
2023/04/30 05:18:21;;;;;;;8.30;7.50;;;9.80;99.90;;;;;;5134240;27;20681;-77
2023/04/30 05:20:49;;;;;;;8.37;7.43;;;9.90;99.90;;;;;;5134678;27;20205;-77
2023/04/30 05:23:18;;;;;;;8.43;7.60;;;10.00;99.90;;;;;;5154675;27;20201;-77
2023/04/30 05:25:51;;;;;;;8.37;7.57;;;10.00;99.90;;;;;;5155176;27;20201;-75
2023/04/30 05:28:19;;;;;;;8.70;7.33;;;10.10;99.90;;;;;;5154029;27;20227;-75
2023/04/30 05:30:47;;;;;;;8.50;7.07;;;10.10;99.90;;;;;;5153650;27;20559;-76
2023/04/30 05:33:15;;;;;;;8.50;7.60;;;10.20;99.90;;;;;;5154595;27;20300;-77
2023/04/30 05:35:43;;;;;;;7.93;7.13;;;10.30;99.90;;;;;;5137507;27;20225;-74
2023/04/30 05:38:11;;;;;;;8.00;7.20;;;10.40;99.90;;;;;;5133906;27;20296;-77
2023/04/30 05:40:41;;;;;;;7.97;7.17;;;10.60;99.90;;;;;;5133847;27;20244;-77
2023/04/30 05:43:09;;;;;;;8.83;7.30;;;10.60;99.90;;;;;;5133625;27;20205;-78
2023/04/30 05:45:37;;;;;;;8.00;7.20;;;10.80;99.90;;;;;;5133567;27;20202;-77
2023/04/30 05:48:05;;;;;;;8.30;7.50;;;10.80;99.90;;;;;;5133653;27;20221;-77
2023/04/30 05:50:33;;;;;;;7.37;6.67;;;10.90;99.90;;;;;;5135317;27;20293;-76
2023/04/30 05:53:01;;;;;;;8.10;7.00;;;11.00;99.90;;;;;;5135183;27;20205;-76
2023/04/30 05:55:29;;;;;;;8.17;7.30;;;11.10;99.90;;;;;;5134991;27;20221;-75
2023/04/30 05:57:59;;;;;;;7.97;6.20;;;11.30;99.90;;;;;;5135794;27;20209;-77
2023/04/30 06:00:27;;;;;;;7.43;6.33;;;11.40;99.90;;;;;;5147008;27;20208;-75
2023/04/30 06:02:55;;;;;;;6.87;6.17;;;11.50;99.90;;;;;;5137622;27;20293;-75
2023/04/30 06:05:23;;;;;;;6.73;5.77;;;11.70;99.90;;;;;;5134960;27;20216;-75
2023/04/30 06:07:52;;;;;;;7.27;5.83;;;11.90;99.90;;;;;;5138878;27;20563;-76
2023/04/30 06:10:20;;;;;;;6.80;6.13;;;12.00;99.90;;;;;;5155786;27;20674;-76
2023/04/30 06:12:48;;;;;;;6.27;5.67;;;12.40;99.90;;;;;;5134733;27;20288;-77
2023/04/30 06:15:17;;;;;;;6.57;5.60;;;12.70;99.90;;;;;;5134403;27;20332;-77
2023/04/30 06:17:45;;;;;;;5.93;5.33;;;12.90;99.90;;;;;;5133783;27;20304;-78
2023/04/30 06:20:14;;;;;;;5.93;5.07;;;13.40;99.90;;;;;;5132159;27;20206;-77
2023/04/30 06:22:42;;;;;;;7.40;5.27;;;13.60;99.90;;;;;;5136479;27;20211;-76
2023/04/30 06:25:10;;;;;;;6.23;5.10;;;13.30;99.90;;;;;;5153823;27;20201;-78
2023/04/30 06:27:38;;;;;;;5.00;4.50;;;13.60;99.90;;;;;;5150764;27;20237;-77
2023/04/30 06:30:08;;;;;;;5.90;4.60;;;13.70;99.90;;;;;;5133008;27;20577;-77
2023/04/30 06:32:37;;;;;;;6.60;4.60;;;13.80;99.90;;;;;;5132418;27;20230;-78
2023/04/30 06:35:06;;;;;;;6.37;4.60;;;13.80;99.90;;;;;;5132714;27;20233;-77
2023/04/30 06:37:36;;;;;;;5.63;4.97;;;13.90;99.90;;;;;;5131916;27;20210;-77
2023/04/30 06:40:06;;;;;;;6.77;4.60;;;13.80;99.90;;;;;;5132611;28;20217;-74
2023/04/30 06:42:34;;;;;;;6.57;4.30;;;14.10;99.90;;;;;;5134218;27;20659;-75
2023/04/30 06:45:03;;;;;;;5.07;4.40;;;14.20;99.90;;;;;;5148135;27;20230;-76
2023/04/30 06:47:33;;;;;;;6.00;4.40;;;14.30;99.90;;;;;;5160412;27;20228;-77
2023/04/30 06:50:03;;;;;;;5.77;4.40;;;14.30;99.90;;;;;;5160523;27;20269;-76
2023/04/30 06:52:31;;;;;;;4.47;4.07;;;14.30;99.90;;;;;;5159584;27;20220;-75
2023/04/30 06:54:59;;;;;;;4.50;4.10;;;14.10;99.90;;;;;;5139508;27;20244;-76
2023/04/30 06:57:27;;;;;;;4.30;3.90;;;13.60;99.90;;;;;;5139796;27;20201;-77
2023/04/30 06:59:55;;;;;;;5.77;4.00;;;14.00;99.90;;;;;;5140043;27;20572;-73
2023/04/30 07:02:24;;;;;;;5.30;4.17;;;14.30;99.90;;;;;;5139414;27;20213;-75
2023/04/30 07:04:53;;;;;;;4.93;3.97;;;14.60;99.90;;;;;;5139886;27;20219;-76
2023/04/30 07:07:22;;;;;;;4.57;3.90;;;14.80;99.90;;;;;;5155101;27;20209;-76
2023/04/30 07:09:52;;;;;;;5.13;4.30;;;14.60;99.90;;;;;;5155927;27;20202;-75
2023/04/30 07:12:21;;;;;;;4.83;4.27;;;14.60;99.90;;;;;;5139333;27;20201;-76
2023/04/30 07:14:49;;;;;;;4.53;3.83;;;15.30;99.90;;;;;;5139915;27;20209;-78
2023/04/30 07:17:17;;;;;;;4.30;3.90;;;15.80;99.90;;;;;;5139637;27;20201;-77
2023/04/30 07:19:45;;;;;;;4.40;3.83;;;16.40;99.90;;;;;;5139608;27;20216;-76
2023/04/30 07:22:13;;;;;;;4.47;4.03;;;16.60;99.90;;;;;;5150521;27;20540;-76
2023/04/30 07:24:42;;;;;;;4.87;3.90;;;17.80;99.90;;;;;;5160291;27;20662;-75
2023/04/30 07:27:10;;;;;;;4.30;3.70;;;18.60;99.90;;;;;;5143870;27;20295;-74
2023/04/30 07:29:38;;;;;;;4.40;3.60;;;19.30;99.90;;;;;;5139492;27;20209;-73
2023/04/30 07:32:06;;;;;;;3.97;3.57;;;19.80;98.30;;;;;;5138956;27;20232;-75
2023/04/30 07:34:34;;;;;;;3.47;3.17;;;20.70;96.40;;;;;;5140277;27;20217;-75
2023/04/30 07:37:02;;;;;;;4.80;3.57;;;22.30;92.30;;;;;;5159989;27;20256;-76
2023/04/30 07:39:30;;;;;;;4.37;3.43;;;22.60;89.80;;;;;;5159755;27;20215;-75
2023/04/30 07:42:01;;;;;;;4.07;3.67;;;23.00;82.70;;;;;;5158584;27;20244;-75
2023/04/30 07:44:30;;;;;;;3.47;3.17;;;21.00;85.40;;;;;;5160288;27;20226;-75
2023/04/30 07:46:58;;;;;;;3.60;3.30;;;21.30;87.00;;;;;;5161333;27;20227;-76
2023/04/30 07:49:26;;;;;;;4.07;3.43;;;22.00;82.20;;;;;;5160092;27;20205;-76
2023/04/30 07:51:55;;;;;;;3.47;3.13;;;21.40;84.70;;;;;;5153474;27;20209;-78
2023/04/30 07:54:23;;;;;;;3.60;3.00;;;21.30;81.50;;;;;;5137369;27;20561;-78
2023/04/30 07:56:51;;;;;;;3.67;3.17;;;22.50;82.10;;;;;;5135883;27;20636;-76
2023/04/30 07:59:23;;;;;;;3.30;3.00;;;22.60;77.90;;;;;;5136128;27;20202;-75
2023/04/30 08:01:51;;;;;;;5.53;3.15;;;22.70;77.00;;;;;;5135312;27;20646;-77
2023/04/30 08:04:19;;;;;;;3.17;2.88;;;23.10;74.60;;;;;;5135954;27;20570;-76
2023/04/30 08:06:47;;;;;;;3.22;2.92;;;22.70;75.50;;;;;;5135613;27;20662;-75
2023/04/30 08:09:15;;;;;;;3.50;2.83;;;23.00;73.40;;;;;;5136949;27;20201;-76
2023/04/30 08:11:43;;;;;;;3.40;3.10;;;22.20;75.30;;;;;;5135477;27;20205;-77
2023/04/30 08:14:11;;;;;;;3.50;3.20;;;21.90;76.10;;;;;;5135509;27;20214;-77
2023/04/30 08:16:41;;;;;;;3.37;3.00;;;21.30;77.10;;;;;;5135661;27;20249;-72
2023/04/30 08:19:09;;;;;;;3.43;3.13;;;21.00;82.30;;;;;;5134827;27;20254;-75
2023/04/30 08:21:37;;;;;;;3.50;2.97;;;20.40;81.90;;;;;;5153571;27;20678;-76
2023/04/30 08:24:05;;;;;;;3.30;3.00;;;19.50;84.80;;;;;;5155360;27;20201;-75
2023/04/30 08:26:34;;;;;;;4.03;3.57;;;19.00;87.90;;;;;;5155578;27;20661;-76
2023/04/30 08:29:02;;;;;;;3.63;3.33;;;18.20;89.20;;;;;;5140353;27;20205;-77
2023/04/30 08:31:30;;;;;;;5.10;3.50;;;18.80;90.90;;;;;;5135042;27;20641;-77
2023/04/30 08:34:00;;;;;;;4.43;3.33;;;19.80;87.30;;;;;;5134728;27;20213;-78
2023/04/30 08:36:28;;;;;;;5.03;3.80;;;19.60;87.50;;;;;;5134711;27;20225;-75
2023/04/30 08:38:57;;;;;;;3.97;3.57;;;19.00;90.40;;;;;;5135311;27;20216;-77
2023/04/30 08:41:27;;;;;;;3.60;3.30;;;19.00;90.20;;;;;;5135221;27;20212;-78
2023/04/30 08:44:00;;;;;;;4.70;3.80;;;18.80;91.40;;;;;;5134760;27;20205;-77
2023/04/30 08:46:31;;;;;;;6.17;3.10;;;19.60;90.20;;;;;;5134684;27;20212;-79
2023/04/30 08:49:01;;;;;;;3.50;3.20;;;19.20;90.50;;;;;;5134992;27;20209;-77
2023/04/30 08:51:32;;;;;;;4.03;3.50;;;18.80;90.30;;;;;;5135088;27;20212;-76
2023/04/30 08:54:00;;;;;;;3.60;3.30;;;18.70;91.90;;;;;;5134993;27;20288;-76
2023/04/30 08:56:32;;;;;;;3.70;3.40;;;19.80;90.60;;;;;;5134762;27;20228;-79
2023/04/30 08:59:00;;;;;;;3.70;3.27;;;20.10;88.70;;;;;;5134660;27;20205;-77
2023/04/30 09:01:30;;;;;;;4.90;3.50;;;20.00;87.10;;;;;;5135413;27;20209;-78
2023/04/30 09:03:58;;;;;;;3.93;3.43;;;20.20;88.80;;;;;;5135003;27;20220;-77
2023/04/30 09:06:28;;;;;;;3.50;3.20;;;20.80;84.40;;;;;;5133773;27;20267;-76
2023/04/30 09:08:56;;;;;;;3.40;3.10;;;21.40;81.40;;;;;;5134981;27;20217;-77
2023/04/30 09:11:25;;;;;;;4.03;3.10;;;22.00;79.70;;;;;;5145184;27;20216;-75
2023/04/30 09:13:54;;;;;;;3.93;3.20;;;22.60;77.60;;;;;;5143860;27;20734;-75
2023/04/30 09:16:23;;;;;;;3.33;3.03;;;23.40;76.90;;;;;;5155245;27;20217;-76
2023/04/30 09:18:52;;;;;;;3.60;3.30;;;24.10;74.20;;;;;;5155113;27;20201;-75
2023/04/30 09:21:33;;;;;;;3.92;3.60;;;23.80;71.80;;;;;;5154984;27;20213;-76
2023/04/30 09:24:02;;;;;;;4.40;3.20;;;22.20;73.10;;;;;;5135459;27;20236;-75
2023/04/30 09:26:36;;;;;;;3.33;2.87;;;21.00;77.50;;;;;;5134768;27;20532;-77
2023/04/30 09:29:07;;;;;;;2.97;2.73;;;20.80;83.30;;;;;;5134291;27;20619;-76
2023/04/30 09:31:36;;;;;;;3.30;3.00;;;20.50;85.30;;;;;;5133989;27;20713;-77
2023/04/30 09:34:05;;;;;;;3.20;2.90;;;20.50;85.50;;;;;;5133787;27;20258;-77
2023/04/30 09:36:34;;;;;;;3.00;2.77;;;21.20;82.70;;;;;;5133876;27;20320;-77
2023/04/30 09:39:07;;;;;;;4.37;3.30;;;21.10;83.50;;;;;;5133824;27;20211;-76
2023/04/30 09:41:39;;;;;;;3.60;3.30;;;20.60;80.90;;;;;;5134255;27;20598;-75
2023/04/30 09:44:07;;;;;;;3.63;3.17;;;19.40;84.40;;;;;;5134134;27;20218;-77
2023/04/30 09:46:37;;;;;;;4.63;3.47;;;18.80;88.20;;;;;;5141984;27;20658;-75
2023/04/30 09:49:06;;;;;;;3.37;3.00;;;18.10;91.80;;;;;;5154744;27;20541;-78
2023/04/30 09:51:35;;;;;;;3.33;2.97;;;17.90;92.60;;;;;;5154680;27;20209;-76
2023/04/30 09:54:07;;;;;;;3.33;3.03;;;17.30;91.00;;;;;;5154438;27;20205;-77
2023/04/30 09:56:38;;;;;;;3.30;3.00;;;17.30;92.00;;;;;;5136218;27;20217;-78
2023/04/30 09:59:07;;;;;;;3.53;2.77;;;17.00;91.40;;;;;;5133738;27;20210;-77
2023/04/30 10:01:36;;;;;;;5.73;3.07;;;16.80;93.00;;;;;;5133753;27;20205;-77
2023/04/30 10:04:08;;;;;;;3.87;3.13;;;17.30;94.10;;;;;;5133645;27;20202;-75
2023/04/30 10:06:38;;;;;;;3.80;3.23;;;17.70;93.70;;;;;;5133358;27;20209;-78
2023/04/30 10:09:08;;;;;;;4.63;3.40;;;17.70;94.80;;;;;;5134122;27;20620;-75
2023/04/30 10:11:37;;;;;;;3.10;2.83;;;17.30;93.90;;;;;;5133841;27;20205;-75
2023/04/30 10:14:10;;;;;;;5.10;3.07;;;17.30;93.20;;;;;;5133242;27;20296;-77
2023/04/30 10:16:46;;;;;;;3.00;2.60;;;17.30;95.30;;;;;;5133852;27;20200;-78
2023/04/30 10:19:20;;;;;;;3.30;3.00;;;17.10;96.20;;;;;;5133527;27;20216;-78
2023/04/30 10:21:50;;;;;;;3.30;3.00;;;17.20;95.50;;;;;;5148508;27;20205;-75
2023/04/30 10:24:20;;;;;;;5.97;3.23;;;17.20;94.90;;;;;;5154837;27;20204;-76
2023/04/30 10:26:49;;;;;;;4.17;3.20;;;17.10;94.40;;;;;;5154377;27;20230;-75
2023/04/30 10:29:18;;;;;;;3.87;3.20;;;16.80;93.90;;;;;;5153918;27;20788;-76
2023/04/30 10:31:48;;;;;;;4.17;3.10;;;16.90;95.00;;;;;;5136175;27;20710;-75
2023/04/30 10:34:25;;;;;;;3.30;3.00;;;16.80;93.90;;;;;;5133279;27;20621;-77
2023/04/30 10:37:00;;;;;;;4.57;3.10;;;16.60;93.30;;;;;;5133458;27;20200;-75
2023/04/30 10:39:29;;;;;;;5.57;3.10;;;16.20;95.70;;;;;;5133249;27;20211;-77
2023/04/30 10:42:07;;;;;;;3.37;3.07;;;16.20;96.40;;;;;;5152269;27;20205;-78
2023/04/30 10:44:37;;;;;;;3.37;3.10;;;15.90;96.50;;;;;;5154082;27;20204;-74
2023/04/30 10:47:07;;;;;;;3.73;3.37;;;15.70;98.00;;;;;;5153931;27;20221;-75
2023/04/30 10:49:35;;;;;;;3.67;3.10;;;15.50;98.70;;;;;;5134013;27;20212;-76
2023/04/30 10:52:05;;;;;;;3.40;3.10;;;15.30;99.30;;;;;;5132841;28;20206;-78
2023/04/30 10:54:35;;;;;;;3.60;3.30;;;15.20;99.30;;;;;;5132993;28;20659;-79
2023/04/30 10:57:12;;;;;;;3.70;3.30;;;15.20;99.50;;;;;;5133173;27;20210;-75
2023/04/30 10:59:46;;;;;;;4.13;3.40;;;15.10;99.60;;;;;;5133174;28;20205;-79
2023/04/30 11:02:16;;;;;;;3.60;3.23;;;14.90;99.70;;;;;;5143058;27;20291;-74
2023/04/30 11:05:13;;;;;;;3.93;3.40;;;15.10;99.90;;;;;;5154934;27;20201;-74
2023/04/30 11:07:50;;;;;;;4.13;3.37;;;15.30;99.50;;;;;;5133697;27;20245;-74
2023/04/30 11:10:22;;;;;;;4.30;3.40;;;15.30;99.90;;;;;;5132827;28;20209;-76
2023/04/30 11:12:52;;;;;;;3.33;3.03;;;15.80;99.90;;;;;;5132500;28;20702;-74
2023/04/30 11:15:21;;;;;;;3.00;2.70;;;15.90;99.60;;;;;;5132687;27;20540;-78
2023/04/30 11:17:50;;;;;;;3.57;3.00;;;16.30;98.50;;;;;;5132879;28;20228;-76
2023/04/30 11:20:21;;;;;;;2.93;2.63;;;16.80;99.50;;;;;;5132817;28;20209;-76
2023/04/30 11:23:08;;;;;;;2.73;2.53;;;16.80;95.10;;;;;;5132475;28;20189;-75
2023/04/30 11:25:41;;;;;;;2.97;2.50;;;17.90;94.50;;;;;;5134130;28;20205;-77
2023/04/30 11:28:13;;;;;;;3.03;2.47;;;18.60;92.80;;;;;;5133104;28;20201;-77
2023/04/30 11:30:42;;;;;;;2.57;2.37;;;19.10;90.80;;;;;;5135559;27;20205;-75
2023/04/30 11:33:11;;;;;;;2.70;2.50;;;19.30;87.70;;;;;;5136258;27;20216;-80
2023/04/30 11:35:39;;;;;;;2.83;2.50;;;19.50;85.80;;;;;;5136777;27;20213;-77
2023/04/30 11:38:12;;;;;;;3.40;2.70;;;19.20;84.80;;;;;;5136523;27;20225;-77
2023/04/30 11:40:41;;;;;;;2.90;2.60;;;18.80;88.90;;;;;;5136518;27;20214;-76
2023/04/30 11:43:21;;;;;;;3.50;3.00;;;18.50;89.80;;;;;;5136051;27;20224;-77
2023/04/30 11:46:09;;;;;;;3.13;2.50;;;18.70;89.40;;;;;;5136704;27;20209;-76
2023/04/30 11:48:38;;;;;;;3.73;2.57;;;19.00;90.00;;;;;;5136235;27;20257;-77
2023/04/30 11:51:15;;;;;;;4.87;2.60;;;18.90;87.20;;;;;;5136300;27;20206;-77
2023/04/30 11:53:46;;;;;;;3.90;2.40;;;18.60;87.30;;;;;;5135968;27;20204;-78
2023/04/30 11:56:14;;;;;;;3.30;2.50;;;18.40;87.60;;;;;;5138586;27;20693;-76
2023/04/30 11:58:42;;;;;;;3.30;2.50;;;18.50;85.00;;;;;;5137651;27;20226;-75
2023/04/30 12:01:10;;;;;;;2.40;2.10;;;18.30;87.90;;;;;;5137461;27;20205;-75
2023/04/30 12:03:43;;;;;;;3.03;2.13;;;18.70;87.90;;;;;;5137615;27;20252;-76
2023/04/30 12:06:12;;;;;;;3.07;2.50;;;18.40;86.00;;;;;;5135959;27;20277;-78
2023/04/30 12:08:42;;;;;;;4.20;2.27;;;18.60;86.30;;;;;;5135386;27;20202;-75
2023/04/30 12:11:24;;;;;;;2.33;2.00;;;18.90;84.60;;;;;;5137216;27;20219;-76
2023/04/30 12:13:54;;;;;;;2.23;2.03;;;18.60;81.70;;;;;;5140795;27;20292;-76
2023/04/30 12:16:24;;;;;;;2.23;2.03;;;18.80;81.10;;;;;;5157658;27;20197;-75
2023/04/30 12:18:52;;;;;;;2.90;2.23;;;19.00;82.90;;;;;;5142747;27;20221;-76
2023/04/30 12:21:22;;;;;;;2.53;2.20;;;18.50;80.90;;;;;;5135742;27;20200;-75
2023/04/30 12:23:50;;;;;;;5.97;2.40;;;18.60;82.20;;;;;;5135236;27;20206;-75
2023/04/30 12:26:18;;;;;;;2.40;2.10;;;18.40;84.90;;;;;;5135273;27;20216;-73
2023/04/30 12:28:49;;;;;;;2.60;2.03;;;18.70;85.60;;;;;;5135829;27;20647;-78
2023/04/30 12:31:18;;;;;;;2.83;2.23;;;19.00;81.80;;;;;;5135612;27;20261;-74
2023/04/30 12:33:55;;;;;;;2.23;1.97;;;19.40;77.10;;;;;;5134735;27;20726;-76
2023/04/30 12:36:32;;;;;;;2.63;2.00;;;18.20;76.80;;;;;;5135184;27;20220;-77
2023/04/30 12:39:07;;;;;;;3.53;2.30;;;18.30;78.10;;;;;;5135091;27;20705;-76
2023/04/30 12:41:37;;;;;;;2.03;1.93;;;18.70;79.50;;;;;;5134623;27;20301;-76
2023/04/30 12:44:20;;;;;;;4.07;2.10;;;18.80;79.70;;;;;;5135279;27;20236;-75
2023/04/30 12:46:49;;;;;;;2.40;2.00;;;19.30;81.50;;;;;;5136285;27;20248;-74
2023/04/30 12:49:27;;;;;;;3.33;2.10;;;19.30;79.10;;;;;;5135747;27;20201;-75
2023/04/30 12:52:00;;;;;;;3.33;2.10;;;19.30;80.10;;;;;;5135210;27;20212;-76
2023/04/30 12:54:31;;;;;;;3.20;1.90;;;19.00;77.50;;;;;;5135274;27;20225;-77
2023/04/30 12:57:01;;;;;;;3.10;2.07;;;19.10;80.50;;;;;;5134806;27;20196;-76
2023/04/30 12:59:32;;;;;;;2.43;2.20;;;19.00;77.10;;;;;;5151052;27;20255;-76
2023/04/30 13:02:11;;;;;;;3.83;2.07;;;19.10;78.30;;;;;;5155656;27;20200;-78
2023/04/30 13:04:40;;;;;;;2.67;2.10;;;18.70;79.10;;;;;;5156687;27;20189;-74